Terminal Aerodrome Forecast
Issued by NWS Cleveland, OH

Home | Current Version | Previous Version | Graphics & Text | Print | Product List | Glossary On
Versions: 1 2 3 4 5 6 7 8 9 10 11 12 13
736
FTUS41 KCLE 202326
TAFMFD
TAF
KMFD 202326Z 2100/2124 23012G20KT P6SM VCSH SCT050 OVC100
      TEMPO 2101/2102 VRB20G35KT 2SM TSRA SCT025CB OVC050
     FM210330 27012KT P6SM SCT025 BKN050
     FM211000 27012G20KT P6SM SCT006 OVC015
     FM212100 30012KT P6SM OVC025=

USA.gov is the U.S. government's official web portal to all federal, state and local government web resources and services.